Time;durP1;ratioP1;P1;durP2;ratioP2;P2;SDS_P1;SDS_P2;PMS_P1;PMS_P2;Temp;Humidity;BMP_temperature;BMP_pressure;BME280_temperature;BME280_humidity;BME280_pressure;Samples;Min_cycle;Max_cycle;Signal;HPM_P1;HPM_P2
2022/05/02 00:02:16;;;;;;;;;;;19.20;60.40;;;;;;5038734;28;1906;-72
2022/05/02 00:04:42;;;;;;;;;;;19.20;60.40;;;;;;5039783;28;1075;-73
2022/05/02 00:07:07;;;;;;;;;;;19.20;60.50;;;;;;5050621;28;1147;-73
2022/05/02 00:09:33;;;;;;;;;;;19.20;61.30;;;;;;5050455;28;1323;-73
2022/05/02 00:11:58;;;;;;;;;;;19.20;60.50;;;;;;5051814;28;1337;-73
2022/05/02 00:14:24;;;;;;;;;;;19.20;61.30;;;;;;5033219;28;1226;-73
2022/05/02 00:16:49;;;;;;;;;;;19.20;60.60;;;;;;5050717;28;1124;-72
2022/05/02 00:19:14;;;;;;;;;;;19.20;60.60;;;;;;5039790;28;1346;-73
2022/05/02 00:21:40;;;;;;;;;;;19.20;60.70;;;;;;5032653;28;1902;-73
2022/05/02 00:24:05;;;;;;;;;;;19.20;60.70;;;;;;5043328;28;1080;-72
2022/05/02 00:26:31;;;;;;;;;;;19.20;60.70;;;;;;5047071;28;1295;-73
2022/05/02 00:28:56;;;;;;;;;;;19.20;60.70;;;;;;5031863;28;1276;-73
2022/05/02 00:31:22;;;;;;;;;;;19.20;60.80;;;;;;5045648;28;1091;-72
2022/05/02 00:33:47;;;;;;;;;;;19.20;60.80;;;;;;5043726;28;1109;-72
2022/05/02 00:36:13;;;;;;;;;;;19.20;60.80;;;;;;5050940;28;1373;-72
2022/05/02 00:38:38;;;;;;;;;;;19.10;60.70;;;;;;5031870;28;1253;-73
2022/05/02 00:41:03;;;;;;;;;;;19.20;60.80;;;;;;5031106;28;1898;-72
2022/05/02 00:43:29;;;;;;;;;;;19.10;60.70;;;;;;5031149;28;1375;-72
2022/05/02 00:45:56;;;;;;;;;;;19.10;60.80;;;;;;5032113;28;1400;-72
2022/05/02 00:48:21;;;;;;;;;;;19.20;60.80;;;;;;5032017;28;1294;-72
2022/05/02 00:50:47;;;;;;;;;;;19.10;60.80;;;;;;5030859;28;1300;-72
2022/05/02 00:53:13;;;;;;;;;;;19.10;60.80;;;;;;5032226;28;1284;-72
2022/05/02 00:55:38;;;;;;;;;;;19.10;60.80;;;;;;5030900;28;1377;-72
2022/05/02 00:58:04;;;;;;;;;;;19.10;60.90;;;;;;5031988;28;1632;-72
2022/05/02 01:00:30;;;;;;;;;;;19.10;60.90;;;;;;5034961;28;1304;-73
2022/05/02 01:02:55;;;;;;;;;;;19.10;60.90;;;;;;5035971;28;1963;-73
2022/05/02 01:05:20;;;;;;;;;;;19.10;60.90;;;;;;5034599;28;1336;-73
2022/05/02 01:07:46;;;;;;;;;;;19.10;60.90;;;;;;5035790;28;1252;-73
2022/05/02 01:10:16;;;;;;;;;;;19.10;60.90;;;;;;5052469;28;1302;-73
2022/05/02 01:12:42;;;;;;;;;;;19.10;60.90;;;;;;5050718;28;1316;-73
2022/05/02 01:15:08;;;;;;;;;;;19.10;60.90;;;;;;5069569;28;1595;-73
2022/05/02 01:17:34;;;;;;;;;;;19.10;60.90;;;;;;5043512;28;1067;-73
2022/05/02 01:19:59;;;;;;;;;;;19.10;60.90;;;;;;5034238;28;1661;-73
2022/05/02 01:22:25;;;;;;;;;;;19.10;61.00;;;;;;5035641;28;1883;-73
2022/05/02 01:24:50;;;;;;;;;;;19.10;61.00;;;;;;5035561;28;1306;-73
2022/05/02 01:27:15;;;;;;;;;;;19.00;60.90;;;;;;5034973;28;1271;-73
2022/05/02 01:29:42;;;;;;;;;;;19.10;61.00;;;;;;5033914;28;1342;-73
2022/05/02 01:32:08;;;;;;;;;;;19.10;61.00;;;;;;5035176;28;1103;-73
2022/05/02 01:34:34;;;;;;;;;;;19.00;61.00;;;;;;5034313;28;1334;-73
2022/05/02 01:37:00;;;;;;;;;;;19.10;61.00;;;;;;5044759;28;1628;-72
2022/05/02 01:39:25;;;;;;;;;;;19.00;60.90;;;;;;5050386;28;1272;-72
2022/05/02 01:41:51;;;;;;;;;;;19.00;61.00;;;;;;5033845;28;1906;-72
2022/05/02 01:44:16;;;;;;;;;;;19.00;61.00;;;;;;5035510;28;1230;-73
2022/05/02 01:46:42;;;;;;;;;;;19.10;61.10;;;;;;5035292;28;1314;-72
2022/05/02 01:49:07;;;;;;;;;;;19.10;61.10;;;;;;5035435;28;1439;-72
2022/05/02 01:51:32;;;;;;;;;;;19.10;61.10;;;;;;5034214;28;1530;-72
2022/05/02 01:53:58;;;;;;;;;;;19.10;61.10;;;;;;5035396;28;1330;-72
2022/05/02 01:56:23;;;;;;;;;;;19.10;61.10;;;;;;5046251;28;894;-73
2022/05/02 01:58:49;;;;;;;;;;;19.10;61.10;;;;;;5037126;28;1274;-72
2022/05/02 02:01:14;;;;;;;;;;;19.00;61.00;;;;;;5028024;28;1952;-73
2022/05/02 02:03:40;;;;;;;;;;;19.10;61.10;;;;;;5051436;28;1242;-72
2022/05/02 02:06:05;;;;;;;;;;;19.10;61.10;;;;;;5035298;28;1334;-73
2022/05/02 02:08:31;;;;;;;;;;;19.00;61.10;;;;;;5038730;28;1397;-73
2022/05/02 02:10:58;;;;;;;;;;;19.00;61.10;;;;;;5053902;28;1298;-72
2022/05/02 02:13:23;;;;;;;;;;;19.00;61.10;;;;;;5048154;28;1365;-73
2022/05/02 02:15:49;;;;;;;;;;;19.00;61.00;;;;;;5043193;28;1397;-72
2022/05/02 02:18:14;;;;;;;;;;;19.00;61.10;;;;;;5050814;28;1426;-72
2022/05/02 02:20:41;;;;;;;;;;;19.00;61.10;;;;;;5054872;28;1067;-73
2022/05/02 02:23:06;;;;;;;;;;;19.00;61.10;;;;;;5054803;28;1944;-73
2022/05/02 02:25:32;;;;;;;;;;;19.00;61.10;;;;;;5070190;28;1309;-73
2022/05/02 02:27:58;;;;;;;;;;;19.00;61.10;;;;;;5036968;28;1637;-73
2022/05/02 02:30:24;;;;;;;;;;;19.00;61.10;;;;;;5042228;28;1221;-72
2022/05/02 02:32:49;;;;;;;;;;;19.00;61.10;;;;;;5044672;28;1173;-72
2022/05/02 02:35:15;;;;;;;;;;;19.00;61.10;;;;;;5044913;28;1285;-74
2022/05/02 02:37:40;;;;;;;;;;;19.00;61.10;;;;;;5047815;28;1291;-74
2022/05/02 02:40:09;;;;;;;;;;;19.00;61.20;;;;;;5045520;28;1282;-73
2022/05/02 02:42:35;;;;;;;;;;;19.00;61.10;;;;;;5046309;28;1898;-73
2022/05/02 02:45:00;;;;;;;;;;;19.00;61.20;;;;;;5041976;28;1703;-74
2022/05/02 02:47:25;;;;;;;;;;;19.00;61.20;;;;;;5043973;28;1208;-73
2022/05/02 02:49:51;;;;;;;;;;;19.00;61.20;;;;;;5058721;28;1307;-75
2022/05/02 02:52:16;;;;;;;;;;;19.00;61.20;;;;;;5042845;28;1292;-72
2022/05/02 02:54:42;;;;;;;;;;;19.00;61.20;;;;;;5044245;28;1192;-73
2022/05/02 02:57:07;;;;;;;;;;;19.00;61.20;;;;;;5045025;28;1223;-74
2022/05/02 02:59:32;;;;;;;;;;;19.00;61.20;;;;;;5043063;28;1346;-73
2022/05/02 03:01:58;;;;;;;;;;;19.00;61.20;;;;;;5042631;28;1959;-73
2022/05/02 03:06:01;;;;;;;;;;;19.00;61.20;;;;;;5043532;28;1256;-73
2022/05/02 03:07:09;;;;;;;;;;;19.00;61.20;;;;;;5043379;28;1124;-75
2022/05/02 03:09:34;;;;;;;;;;;19.00;61.20;;;;;;5045336;28;1385;-71
2022/05/02 03:11:59;;;;;;;;;;;19.00;61.20;;;;;;5058933;28;1281;-74
2022/05/02 03:14:25;;;;;;;;;;;18.90;62.00;;;;;;5059045;28;1546;-73
2022/05/02 03:16:50;;;;;;;;;;;19.00;61.30;;;;;;5059224;28;1427;-74
2022/05/02 03:19:16;;;;;;;;;;;18.90;61.20;;;;;;5044900;28;1295;-73
2022/05/02 03:21:41;;;;;;;;;;;19.00;61.30;;;;;;5044893;28;1911;-74
2022/05/02 03:24:07;;;;;;;;;;;19.00;61.30;;;;;;5044494;28;1244;-72
2022/05/02 03:26:32;;;;;;;;;;;19.00;61.30;;;;;;5046604;28;1418;-72
2022/05/02 03:28:58;;;;;;;;;;;18.90;61.20;;;;;;5043924;28;1354;-74
2022/05/02 03:31:23;;;;;;;;;;;19.00;61.30;;;;;;5041855;28;1299;-73
2022/05/02 03:33:49;;;;;;;;;;;19.00;61.30;;;;;;5041936;28;1326;-71
2022/05/02 03:36:14;;;;;;;;;;;18.90;61.20;;;;;;5045020;28;1378;-72
2022/05/02 03:38:39;;;;;;;;;;;18.90;61.20;;;;;;5041880;28;1257;-73
2022/05/02 03:41:05;;;;;;;;;;;18.90;61.30;;;;;;5041916;28;1894;-73
2022/05/02 03:43:31;;;;;;;;;;;18.90;61.30;;;;;;5039207;28;1235;-73
2022/05/02 03:45:57;;;;;;;;;;;18.90;61.30;;;;;;5051049;28;1411;-72
2022/05/02 03:48:22;;;;;;;;;;;18.90;61.30;;;;;;5052452;28;1272;-71
2022/05/02 03:50:47;;;;;;;;;;;18.90;61.30;;;;;;5053083;28;1131;-71
2022/05/02 03:53:15;;;;;;;;;;;18.90;61.30;;;;;;5052978;28;1272;-73
2022/05/02 03:55:42;;;;;;;;;;;18.90;61.30;;;;;;5039753;28;1202;-73
2022/05/02 03:58:08;;;;;;;;;;;18.90;61.30;;;;;;5052884;28;1348;-73
2022/05/02 04:00:34;;;;;;;;;;;18.90;61.30;;;;;;5051694;28;1201;-72
2022/05/02 04:02:59;;;;;;;;;;;18.90;61.30;;;;;;5040808;28;1902;-70
2022/05/02 04:05:25;;;;;;;;;;;18.90;61.30;;;;;;5052098;28;1358;-70
2022/05/02 04:07:50;;;;;;;;;;;18.90;61.30;;;;;;5047071;28;1788;-69
2022/05/02 04:10:16;;;;;;;;;;;18.90;61.30;;;;;;5062624;28;1838;-67
2022/05/02 04:12:42;;;;;;;;;;;19.00;61.30;;;;;;5044482;28;1251;-68
2022/05/02 04:15:09;;;;;;;;;;;19.00;61.20;;;;;;5046660;28;1123;-67
2022/05/02 04:17:35;;;;;;;;;;;19.00;61.10;;;;;;5056092;28;1344;-71
2022/05/02 04:20:00;;;;;;;;;;;19.10;61.00;;;;;;5032794;28;1306;-70
2022/05/02 04:22:25;;;;;;;;;;;19.10;60.90;;;;;;5031424;28;1944;-70
2022/05/02 04:24:51;;;;;;;;;;;19.20;60.70;;;;;;5032704;28;1327;-70
2022/05/02 04:27:16;;;;;;;;;;;19.30;60.60;;;;;;5032687;28;1263;-66
2022/05/02 04:29:42;;;;;;;;;;;19.30;61.10;;;;;;5032609;28;1324;-69
2022/05/02 04:32:07;;;;;;;;;;;19.40;60.20;;;;;;5032916;28;1330;-69
2022/05/02 04:34:33;;;;;;;;;;;19.50;60.00;;;;;;5036935;28;1346;-69
2022/05/02 04:36:58;;;;;;;;;;;19.60;59.80;;;;;;5047011;28;1582;-71
2022/05/02 04:39:24;;;;;;;;;;;19.60;59.60;;;;;;5052354;28;1375;-69
2022/05/02 04:41:49;;;;;;;;;;;19.70;59.40;;;;;;5047323;28;1898;-67
2022/05/02 04:44:14;;;;;;;;;;;19.80;59.30;;;;;;5052639;28;1300;-68
2022/05/02 04:46:40;;;;;;;;;;;19.90;59.10;;;;;;5036555;28;1310;-68
2022/05/02 04:49:05;;;;;;;;;;;19.90;58.90;;;;;;5039053;28;1341;-70
2022/05/02 04:51:31;;;;;;;;;;;19.90;58.80;;;;;;5056452;28;778;-72
2022/05/02 04:53:56;;;;;;;;;;;20.00;58.70;;;;;;5039764;28;1043;-69
2022/05/02 04:56:21;;;;;;;;;;;20.00;58.70;;;;;;5036459;28;1339;-67
2022/05/02 04:58:47;;;;;;;;;;;20.00;58.60;;;;;;5034800;28;1303;-67
2022/05/02 05:01:12;;;;;;;;;;;20.10;58.60;;;;;;5036376;28;1970;-67
2022/05/02 05:03:38;;;;;;;;;;;20.10;58.50;;;;;;5036493;28;1303;-67
2022/05/02 05:06:03;;;;;;;;;;;20.10;58.50;;;;;;5018294;28;1333;-67
2022/05/02 05:08:29;;;;;;;;;;;20.10;58.40;;;;;;5038517;28;1624;-67
2022/05/02 05:11:02;;;;;;;;;;;20.10;58.40;;;;;;5056025;28;1279;-67
2022/05/02 05:13:27;;;;;;;;;;;20.10;58.40;;;;;;5054920;28;1390;-68
2022/05/02 05:16:22;;;;;;;;;;;20.10;58.40;;;;;;5043595;28;1072;-71
2022/05/02 05:18:52;;;;;;;;;;;20.10;58.30;;;;;;5057290;28;1279;-71
2022/05/02 05:21:25;;;;;;;;;;;20.10;58.30;;;;;;5054594;28;1902;-71
2022/05/02 05:23:57;;;;;;;;;;;20.10;58.30;;;;;;5056233;28;1333;-71
2022/05/02 05:26:30;;;;;;;;;;;20.10;58.30;;;;;;5055828;28;1389;-71
2022/05/02 05:29:00;;;;;;;;;;;20.10;58.30;;;;;;5054295;28;1355;-72
2022/05/02 05:31:30;;;;;;;;;;;20.10;58.30;;;;;;5054557;28;1421;-71
2022/05/02 05:33:59;;;;;;;;;;;20.10;58.30;;;;;;5055980;28;1270;-73
2022/05/02 05:36:35;;;;;;;;;;;20.10;58.30;;;;;;5049046;28;1656;-73
2022/05/02 05:39:04;;;;;;;;;;;20.10;58.30;;;;;;5069340;28;1306;-72
2022/05/02 05:41:47;;;;;;;;;;;20.10;58.30;;;;;;5034296;28;1898;-72
2022/05/02 05:44:22;;;;;;;;;;;20.10;58.30;;;;;;5034095;28;1403;-72
2022/05/02 05:47:06;;;;;;;;;;;20.10;58.30;;;;;;5035474;28;1278;-72
2022/05/02 05:49:37;;;;;;;;;;;20.10;58.30;;;;;;5043051;28;1360;-72
2022/05/02 05:52:13;;;;;;;;;;;20.10;58.40;;;;;;5055266;28;1361;-72
2022/05/02 05:54:44;;;;;;;;;;;20.10;58.40;;;;;;5054112;28;1263;-71
2022/05/02 05:57:33;;;;;;;;;;;20.10;58.40;;;;;;5040532;28;1167;-71
2022/05/02 06:00:11;;;;;;;;;;;20.10;58.40;;;;;;5054607;28;1341;-71
2022/05/02 06:02:55;;;;;;;;;;;20.10;58.40;;;;;;5035205;28;1910;-70
2022/05/02 06:05:21;;;;;;;;;;;20.10;58.50;;;;;;5035330;28;1230;-72
2022/05/02 06:07:46;;;;;;;;;;;20.10;58.50;;;;;;5035029;28;1341;-70
2022/05/02 06:10:13;;;;;;;;;;;20.10;58.50;;;;;;5052936;28;1432;-70
2022/05/02 06:12:38;;;;;;;;;;;20.10;58.50;;;;;;5053670;28;1427;-68
2022/05/02 06:20:39;;;;;;;;;;;20.00;58.50;;;;;;5054927;28;1266;-69
2022/05/02 06:23:08;;;;;;;;;;;20.00;58.50;;;;;;5053414;28;1905;-69
2022/05/02 06:25:33;;;;;;;;;;;20.00;59.10;;;;;;5053661;28;1290;-68
2022/05/02 06:27:59;;;;;;;;;;;20.00;58.50;;;;;;5053304;28;1367;-68
2022/05/02 06:30:24;;;;;;;;;;;20.00;58.60;;;;;;5043349;28;1235;-69
2022/05/02 06:32:50;;;;;;;;;;;20.00;58.60;;;;;;5034631;28;1363;-70
2022/05/02 06:35:15;;;;;;;;;;;20.00;58.60;;;;;;5043310;28;1332;-72
2022/05/02 06:37:44;;;;;;;;;;;20.00;58.60;;;;;;5039509;28;2054;-69
2022/05/02 06:40:24;;;;;;;;;;;20.00;58.60;;;;;;5048132;28;1325;-69
2022/05/02 06:43:08;;;;;;;;;;;20.00;58.60;;;;;;5061311;28;1937;-68
2022/05/02 06:45:37;;;;;;;;;;;20.00;58.60;;;;;;5037355;28;1247;-69
2022/05/02 06:48:16;;;;;;;;;;;20.00;58.60;;;;;;5032907;28;1123;-70
2022/05/02 06:50:43;;;;;;;;;;;20.00;58.60;;;;;;5041267;28;1284;-70
2022/05/02 06:53:09;;;;;;;;;;;20.00;58.70;;;;;;5058008;28;1205;-70
2022/05/02 06:55:44;;;;;;;;;;;19.90;58.70;;;;;;5050223;28;1333;-70
2022/05/02 06:58:28;;;;;;;;;;;20.00;58.70;;;;;;5053925;28;1329;-70
2022/05/02 07:01:05;;;;;;;;;;;19.90;58.70;;;;;;5073504;22;1965;-68
2022/05/02 07:03:31;;;;;;;;;;;19.90;58.70;;;;;;5052658;28;1065;-68
2022/05/02 07:06:08;;;;;;;;;;;19.90;58.70;;;;;;5054103;28;1326;-68
2022/05/02 07:09:04;;;;;;;;;;;19.90;58.80;;;;;;5053079;28;1337;-68
2022/05/02 07:11:59;;;;;;;;;;;19.90;58.80;;;;;;5025160;28;1283;-69
2022/05/02 07:14:34;;;;;;;;;;;19.90;58.80;;;;;;5027620;28;1210;-69
2022/05/02 07:17:01;;;;;;;;;;;19.90;58.90;;;;;;5032346;28;1248;-69
2022/05/02 07:19:34;;;;;;;;;;;19.90;58.90;;;;;;5031941;28;1272;-66
2022/05/02 07:22:22;;;;;;;;;;;19.90;58.90;;;;;;5032559;28;1992;-67
2022/05/02 07:24:56;;;;;;;;;;;19.80;58.90;;;;;;5032065;28;1120;-70
2022/05/02 07:27:26;;;;;;;;;;;19.90;59.00;;;;;;5033202;28;1326;-70
2022/05/02 07:29:52;;;;;;;;;;;19.80;59.00;;;;;;5035505;28;1341;-69
2022/05/02 07:32:20;;;;;;;;;;;19.80;59.00;;;;;;5032106;28;1119;-71
2022/05/02 07:34:47;;;;;;;;;;;19.80;59.10;;;;;;5032321;28;1433;-71
2022/05/02 07:37:13;;;;;;;;;;;19.80;59.10;;;;;;5023026;28;1735;-66
2022/05/02 07:39:38;;;;;;;;;;;19.80;59.10;;;;;;5031662;28;1419;-66
2022/05/02 07:42:04;;;;;;;;;;;19.80;59.20;;;;;;5031619;28;1871;-67
2022/05/02 07:44:31;;;;;;;;;;;19.70;59.20;;;;;;5033117;28;1194;-67
2022/05/02 07:46:58;;;;;;;;;;;19.70;59.20;;;;;;5031837;28;1064;-67
2022/05/02 07:49:23;;;;;;;;;;;19.70;59.20;;;;;;5031030;28;1406;-67
2022/05/02 07:51:51;;;;;;;;;;;19.70;59.30;;;;;;5032744;28;1285;-68
2022/05/02 07:54:18;;;;;;;;;;;19.70;59.30;;;;;;5032917;28;1399;-67
2022/05/02 07:56:45;;;;;;;;;;;19.70;59.40;;;;;;5031821;28;1280;-70
2022/05/02 07:59:11;;;;;;;;;;;19.70;59.40;;;;;;5031895;28;1315;-67
2022/05/02 08:01:36;;;;;;;;;;;19.70;59.50;;;;;;5032643;28;1891;-68
2022/05/02 08:04:02;;;;;;;;;;;19.70;59.50;;;;;;5031559;28;1468;-66
2022/05/02 08:06:40;;;;;;;;;;;19.60;59.50;;;;;;5028396;28;812;-68
2022/05/02 08:09:24;;;;;;;;;;;19.60;59.50;;;;;;5011734;28;1401;-68
2022/05/02 08:12:13;;;;;;;;;;;19.60;59.60;;;;;;5030717;28;1321;-67
2022/05/02 08:14:45;;;;;;;;;;;19.60;59.60;;;;;;5031624;28;1210;-68
2022/05/02 08:17:16;;;;;;;;;;;19.60;59.70;;;;;;5032579;28;1379;-68
2022/05/02 08:19:55;;;;;;;;;;;19.60;59.70;;;;;;5029310;28;1364;-68
2022/05/02 08:28:01;;;;;;;;;;;19.60;59.80;;;;;;5031145;28;1340;-68
2022/05/02 08:30:27;;;;;;;;;;;19.50;59.80;;;;;;5030023;28;1357;-68
2022/05/02 08:33:05;;;;;;;;;;;19.50;59.80;;;;;;5029558;28;1244;-68
2022/05/02 08:35:49;;;;;;;;;;;19.50;59.80;;;;;;5026531;28;1527;-66
2022/05/02 08:38:16;;;;;;;;;;;19.50;59.90;;;;;;5026261;28;1073;-68
2022/05/02 08:40:42;;;;;;;;;;;19.50;59.90;;;;;;5026921;28;1247;-67
2022/05/02 08:43:07;;;;;;;;;;;19.50;59.90;;;;;;5030757;28;1956;-67
2022/05/02 08:45:52;;;;;;;;;;;19.50;60.00;;;;;;5031406;28;1236;-68
2022/05/02 08:48:21;;;;;;;;;;;19.50;60.00;;;;;;5029156;28;1068;-69
2022/05/02 08:51:05;;;;;;;;;;;19.50;60.10;;;;;;5031350;28;1294;-67
2022/05/02 08:53:45;;;;;;;;;;;19.40;60.00;;;;;;5024216;28;1894;-67
2022/05/02 08:56:10;;;;;;;;;;;19.50;60.10;;;;;;5028199;28;2033;-69
2022/05/02 08:58:42;;;;;;;;;;;19.40;60.10;;;;;;5031886;28;1406;-68
2022/05/02 09:01:15;;;;;;;;;;;19.40;60.20;;;;;;5019912;28;1977;-68
2022/05/02 09:04:13;;;;;;;;;;;19.50;60.30;;;;;;5022014;28;1100;-67
2022/05/02 09:06:51;;;;;;;;;;;19.40;60.20;;;;;;5009322;28;1361;-67
2022/05/02 09:09:16;;;;;;;;;;;19.40;60.30;;;;;;5010490;28;1284;-66
2022/05/02 09:12:11;;;;;;;;;;;19.40;60.20;;;;;;5027626;28;1300;-68
2022/05/02 09:14:37;;;;;;;;;;;19.40;60.20;;;;;;5024498;28;1206;-67
2022/05/02 09:17:23;;;;;;;;;;;19.40;60.30;;;;;;5031394;28;1276;-68
2022/05/02 09:19:58;;;;;;;;;;;19.40;60.30;;;;;;5021787;28;2060;-67
2022/05/02 09:22:32;;;;;;;;;;;19.40;60.40;;;;;;5030621;28;2245;-68
2022/05/02 09:25:04;;;;;;;;;;;19.40;60.40;;;;;;5032677;28;1150;-67
2022/05/02 09:27:42;;;;;;;;;;;19.40;60.40;;;;;;5032406;28;1308;-67
2022/05/02 09:30:26;;;;;;;;;;;19.40;60.40;;;;;;5033422;28;1224;-67
2022/05/02 09:32:52;;;;;;;;;;;19.30;60.40;;;;;;5034612;28;1326;-67
2022/05/02 09:35:18;;;;;;;;;;;19.30;60.40;;;;;;5033114;28;1268;-68
2022/05/02 09:37:57;;;;;;;;;;;19.30;60.50;;;;;;5021184;28;1303;-68
2022/05/02 09:40:24;;;;;;;;;;;19.30;60.50;;;;;;5025591;28;1649;-69
2022/05/02 09:42:51;;;;;;;;;;;19.30;60.50;;;;;;5028649;28;1906;-67
2022/05/02 09:51:13;;;;;;;;;;;19.30;60.60;;;;;;5032888;28;1109;-67
2022/05/02 09:53:42;;;;;;;;;;;19.30;60.60;;;;;;5033839;28;1260;-67
2022/05/02 09:58:56;;;;;;;;;;;19.20;60.60;;;;;;5031706;28;1411;-67
2022/05/02 10:01:25;;;;;;;;;;;19.20;60.70;;;;;;5030816;28;1937;-68
2022/05/02 10:04:04;;;;;;;;;;;19.20;60.70;;;;;;5030070;28;2595;-67
2022/05/02 10:06:31;;;;;;;;;;;19.30;60.70;;;;;;5033257;28;1307;-67
2022/05/02 10:09:00;;;;;;;;;;;19.20;60.70;;;;;;5033142;28;1481;-68
2022/05/02 10:11:32;;;;;;;;;;;19.30;60.80;;;;;;5033541;28;1268;-68
2022/05/02 10:14:16;;;;;;;;;;;19.20;60.80;;;;;;5028421;28;1146;-67
2022/05/02 10:16:51;;;;;;;;;;;19.30;60.80;;;;;;5022615;28;1493;-67
2022/05/02 10:19:35;;;;;;;;;;;19.30;60.80;;;;;;5030400;28;1314;-67
2022/05/02 10:22:16;;;;;;;;;;;19.20;60.90;;;;;;5032222;28;1965;-67
2022/05/02 10:25:02;;;;;;;;;;;19.20;60.80;;;;;;5011184;28;1440;-67
2022/05/02 10:27:31;;;;;;;;;;;19.20;60.90;;;;;;5030630;28;1173;-67
2022/05/02 10:30:04;;;;;;;;;;;19.20;60.90;;;;;;5017351;28;1317;-67
2022/05/02 10:33:04;;;;;;;;;;;19.20;60.90;;;;;;5031779;28;1291;-66
2022/05/02 10:35:30;;;;;;;;;;;19.20;60.90;;;;;;5029277;28;1396;-67
2022/05/02 10:37:57;;;;;;;;;;;19.20;61.00;;;;;;5029870;28;1145;-67
2022/05/02 10:40:29;;;;;;;;;;;19.20;60.90;;;;;;5032374;28;1284;-67
2022/05/02 10:42:56;;;;;;;;;;;19.20;61.00;;;;;;5026729;28;1894;-67
2022/05/02 10:45:21;;;;;;;;;;;19.20;61.00;;;;;;5027067;28;1271;-67
2022/05/02 10:47:50;;;;;;;;;;;19.20;61.00;;;;;;5027678;28;1428;-67
2022/05/02 10:50:19;;;;;;;;;;;19.20;61.00;;;;;;5024311;28;1298;-67
2022/05/02 10:52:49;;;;;;;;;;;19.20;61.00;;;;;;5031657;28;1266;-68
2022/05/02 10:55:24;;;;;;;;;;;19.20;61.10;;;;;;5031875;28;1264;-67
2022/05/02 10:57:58;;;;;;;;;;;19.20;61.10;;;;;;5029779;28;1260;-68
2022/05/02 11:00:23;;;;;;;;;;;19.20;61.10;;;;;;5029756;28;1304;-67
2022/05/02 11:03:00;;;;;;;;;;;19.20;61.20;;;;;;5030420;28;1953;-67
2022/05/02 11:05:34;;;;;;;;;;;19.20;61.10;;;;;;5030344;28;1307;-67
2022/05/02 11:07:59;;;;;;;;;;;19.10;61.10;;;;;;5031080;28;1051;-67
2022/05/02 11:10:26;;;;;;;;;;;19.10;61.10;;;;;;5031193;28;1213;-66
2022/05/02 11:13:10;;;;;;;;;;;19.10;61.10;;;;;;5025756;28;1234;-67
2022/05/02 11:15:38;;;;;;;;;;;19.10;61.10;;;;;;5018984;28;2480;-67
2022/05/02 11:21:12;;;;;;;;;;;19.10;61.10;;;;;;5031234;28;1244;-67
2022/05/02 11:23:45;;;;;;;;;;;19.10;61.20;;;;;;5031266;28;1041;-67
2022/05/02 11:26:32;;;;;;;;;;;19.10;61.20;;;;;;5030260;28;1115;-67
2022/05/02 11:29:10;;;;;;;;;;;19.10;61.20;;;;;;5030814;28;1349;-68
2022/05/02 11:31:40;;;;;;;;;;;19.10;61.20;;;;;;5018807;28;1048;-67
2022/05/02 11:34:29;;;;;;;;;;;19.10;61.20;;;;;;5031159;28;1674;-68
2022/05/02 11:36:55;;;;;;;;;;;19.10;61.20;;;;;;5031119;28;1680;-68
2022/05/02 11:39:24;;;;;;;;;;;19.10;61.20;;;;;;5030231;28;1347;-67
2022/05/02 11:41:50;;;;;;;;;;;19.10;61.20;;;;;;5026969;28;1973;-68
2022/05/02 11:44:16;;;;;;;;;;;19.10;61.30;;;;;;5029399;28;1253;-68
2022/05/02 11:46:55;;;;;;;;;;;19.10;61.30;;;;;;5030438;28;1328;-67
2022/05/02 11:49:33;;;;;;;;;;;19.10;61.30;;;;;;5029498;28;1317;-68
2022/05/02 11:52:00;;;;;;;;;;;19.10;61.30;;;;;;5031238;28;1271;-68
2022/05/02 11:54:39;;;;;;;;;;;19.10;61.30;;;;;;5032134;28;1248;-68
2022/05/02 11:57:05;;;;;;;;;;;19.10;61.30;;;;;;5031414;28;1252;-67
2022/05/02 11:59:39;;;;;;;;;;;19.10;61.30;;;;;;5031540;28;1386;-68
2022/05/02 12:02:04;;;;;;;;;;;19.10;61.30;;;;;;5029863;28;1914;-68
2022/05/02 12:04:30;;;;;;;;;;;19.10;61.30;;;;;;5009930;28;1386;-68
2022/05/02 12:07:04;;;;;;;;;;;19.10;61.30;;;;;;5029519;28;1303;-68
2022/05/02 12:09:32;;;;;;;;;;;19.10;61.30;;;;;;5031394;28;1298;-68
2022/05/02 12:12:01;;;;;;;;;;;19.10;61.30;;;;;;5026576;28;1368;-68
2022/05/02 12:14:26;;;;;;;;;;;19.10;61.30;;;;;;5023438;28;1092;-68
2022/05/02 12:17:06;;;;;;;;;;;19.10;61.30;;;;;;5029572;28;1335;-68
2022/05/02 12:19:32;;;;;;;;;;;19.10;61.40;;;;;;5030472;28;1313;-68
2022/05/02 12:21:57;;;;;;;;;;;19.10;61.40;;;;;;5029843;28;1894;-68
2022/05/02 12:24:26;;;;;;;;;;;19.00;61.30;;;;;;5030324;28;1314;-67
2022/05/02 12:26:52;;;;;;;;;;;19.10;61.40;;;;;;5030768;28;1107;-67
2022/05/02 12:29:18;;;;;;;;;;;19.10;61.40;;;;;;5031029;28;1280;-67
2022/05/02 12:31:44;;;;;;;;;;;19.10;61.40;;;;;;5030619;28;1266;-66
2022/05/02 12:34:10;;;;;;;;;;;19.00;61.30;;;;;;5027980;28;1487;-66
2022/05/02 12:36:45;;;;;;;;;;;19.10;61.40;;;;;;5030171;28;1593;-66
2022/05/02 12:39:13;;;;;;;;;;;19.00;61.40;;;;;;5031401;28;1340;-65
2022/05/02 12:41:43;;;;;;;;;;;19.00;61.40;;;;;;5029248;28;1978;-67
2022/05/02 12:44:09;;;;;;;;;;;19.00;61.40;;;;;;5030035;28;1246;-66
2022/05/02 12:46:39;;;;;;;;;;;19.00;61.40;;;;;;5029210;28;1061;-65
2022/05/02 12:49:04;;;;;;;;;;;19.10;61.50;;;;;;5029331;28;1376;-66
2022/05/02 12:51:30;;;;;;;;;;;19.00;61.40;;;;;;5031067;28;1255;-66
2022/05/02 12:54:13;;;;;;;;;;;19.00;61.50;;;;;;5032252;28;1278;-66
2022/05/02 13:02:29;;;;;;;;;;;19.00;61.50;;;;;;5034103;28;1969;-66
2022/05/02 13:04:55;;;;;;;;;;;19.00;61.50;;;;;;5031899;28;1274;-67
2022/05/02 13:07:20;;;;;;;;;;;19.00;61.50;;;;;;5031755;28;1587;-68
2022/05/02 13:09:45;;;;;;;;;;;19.00;61.50;;;;;;5060378;22;1943;-71
2022/05/02 13:12:11;;;;;;;;;;;19.00;61.50;;;;;;5024842;28;1102;-71
2022/05/02 13:14:36;;;;;;;;;;;19.00;61.50;;;;;;5051955;28;1201;-72
2022/05/02 13:17:02;;;;;;;;;;;19.00;61.50;;;;;;5051668;28;1180;-72
2022/05/02 13:19:31;;;;;;;;;;;19.00;61.50;;;;;;5056126;28;1331;-72
2022/05/02 13:21:57;;;;;;;;;;;19.00;61.60;;;;;;5066241;28;1906;-71
2022/05/02 13:24:22;;;;;;;;;;;19.00;61.60;;;;;;5073822;28;1186;-72
2022/05/02 13:26:54;;;;;;;;;;;19.00;61.50;;;;;;5074396;28;1249;-71
2022/05/02 13:29:30;;;;;;;;;;;19.00;61.60;;;;;;5074291;28;1474;-71
2022/05/02 13:32:02;;;;;;;;;;;19.00;61.50;;;;;;5073799;28;1210;-71
2022/05/02 13:34:29;;;;;;;;;;;19.00;61.60;;;;;;5072794;28;1347;-71
2022/05/02 13:36:58;;;;;;;;;;;19.00;61.60;;;;;;5073858;28;1643;-70
2022/05/02 13:39:24;;;;;;;;;;;19.00;61.60;;;;;;5072685;28;1339;-70
2022/05/02 13:41:54;;;;;;;;;;;19.00;61.60;;;;;;5072624;28;1902;-71
2022/05/02 13:44:38;;;;;;;;;;;19.00;61.60;;;;;;5072868;28;1261;-70
2022/05/02 13:47:10;;;;;;;;;;;19.00;61.60;;;;;;5073225;28;1001;-70
2022/05/02 13:49:38;;;;;;;;;;;19.00;61.60;;;;;;5073199;28;1398;-70
2022/05/02 13:52:04;;;;;;;;;;;19.00;61.60;;;;;;5071955;28;1320;-69
2022/05/02 13:54:33;;;;;;;;;;;19.00;61.70;;;;;;5073857;28;1262;-70
2022/05/02 13:57:05;;;;;;;;;;;19.00;61.60;;;;;;5069773;28;1243;-69
2022/05/02 13:59:45;;;;;;;;;;;19.00;61.70;;;;;;5062792;28;1354;-69
2022/05/02 14:02:17;;;;;;;;;;;19.00;61.60;;;;;;5069413;28;1902;-71
2022/05/02 14:04:47;;;;;;;;;;;19.00;61.70;;;;;;5072982;28;1277;-72
2022/05/02 14:07:14;;;;;;;;;;;18.90;61.60;;;;;;5070862;28;882;-71
2022/05/02 14:09:46;;;;;;;;;;;19.00;61.70;;;;;;5071788;28;1302;-71
2022/05/02 14:12:18;;;;;;;;;;;19.00;61.70;;;;;;5072073;28;1208;-71
2022/05/02 14:15:14;;;;;;;;;;;19.00;61.70;;;;;;5067471;28;1091;-71
2022/05/02 14:17:45;;;;;;;;;;;18.90;61.60;;;;;;5067833;28;1349;-71
2022/05/02 14:20:13;;;;;;;;;;;19.00;61.70;;;;;;5072058;28;1470;-72
2022/05/02 14:22:39;;;;;;;;;;;19.00;61.70;;;;;;5073506;28;1897;-71
2022/05/02 14:25:08;;;;;;;;;;;19.00;61.70;;;;;;5073987;28;1325;-71
2022/05/02 14:27:34;;;;;;;;;;;19.00;61.70;;;;;;5072720;28;1256;-72
2022/05/02 14:30:03;;;;;;;;;;;19.00;61.70;;;;;;5072051;28;1228;-69
2022/05/02 14:32:59;;;;;;;;;;;19.00;61.70;;;;;;5071606;28;1310;-71
2022/05/02 14:35:28;;;;;;;;;;;19.00;61.80;;;;;;5068922;28;1378;-70
2022/05/02 14:37:54;;;;;;;;;;;19.00;61.70;;;;;;5063737;28;1230;-70
2022/05/02 14:40:20;;;;;;;;;;;19.00;61.70;;;;;;5073483;28;1324;-70
2022/05/02 14:42:45;;;;;;;;;;;19.00;61.70;;;;;;5073527;28;1893;-68
2022/05/02 14:45:11;;;;;;;;;;;19.00;61.70;;;;;;5073355;28;1179;-70
2022/05/02 14:47:36;;;;;;;;;;;19.00;61.70;;;;;;5071321;28;1361;-70
2022/05/02 14:50:02;;;;;;;;;;;19.00;61.70;;;;;;5071987;28;1357;-70
2022/05/02 14:52:28;;;;;;;;;;;18.90;61.70;;;;;;5073072;28;1320;-72
2022/05/02 14:54:54;;;;;;;;;;;18.90;61.70;;;;;;5072567;28;1285;-72
2022/05/02 14:57:21;;;;;;;;;;;18.90;61.70;;;;;;5071787;28;1322;-70
2022/05/02 14:59:46;;;;;;;;;;;19.00;61.80;;;;;;5072861;28;1356;-70
2022/05/02 15:02:12;;;;;;;;;;;18.90;61.70;;;;;;5072295;28;1886;-69
2022/05/02 15:04:39;;;;;;;;;;;18.90;61.70;;;;;;5072088;28;1276;-69
2022/05/02 15:07:04;;;;;;;;;;;19.00;61.80;;;;;;5071819;28;1398;-69
2022/05/02 15:12:29;;;;;;;;;;;18.90;61.70;;;;;;5072058;28;1124;-68
2022/05/02 15:15:15;;;;;;;;;;;18.90;61.80;;;;;;5070910;28;1320;-68
2022/05/02 15:17:44;;;;;;;;;;;18.90;61.80;;;;;;5071045;28;1265;-70